Time;durP1;ratioP1;P1;durP2;ratioP2;P2;SDS_P1;SDS_P2;PMS_P1;PMS_P2;Temp;Humidity;BMP_temperature;BMP_pressure;BME280_temperature;BME280_humidity;BME280_pressure;Samples;Min_cycle;Max_cycle;Signal;HPM_P1;HPM_P2
2022/09/25 00:01:57;;;;;;;12.23;3.40;;;;;;;;;;5043320;28;20196;-73
2022/09/25 00:04:22;;;;;;;15.50;4.13;;;;;;;;;;5044488;28;20170;-72
2022/09/25 00:06:48;;;;;;;13.98;3.90;;;;;;;;;;5044174;28;20563;-72
2022/09/25 00:09:17;;;;;;;14.20;3.75;;;;;;;;;;5048630;28;20228;-72
2022/09/25 00:11:42;;;;;;;12.67;3.50;;;;;;;;;;5044974;28;20561;-72
2022/09/25 00:14:08;;;;;;;14.82;4.78;;;;;;;;;;5041144;28;20697;-72
2022/09/25 00:16:33;;;;;;;15.75;3.97;;;;;;;;;;5055220;28;20208;-72
2022/09/25 00:21:44;;;;;;;8.10;4.32;;;;;;;;;;5045245;28;20332;-72
2022/09/25 00:24:12;;;;;;;12.77;5.70;;;;;;;;;;5044656;28;20177;-72
2022/09/25 00:26:40;;;;;;;15.50;5.22;;;;;;;;;;5058246;28;20252;-72
2022/09/25 00:29:07;;;;;;;10.63;4.57;;;;;;;;;;5050779;28;20246;-72
2022/09/25 00:31:33;;;;;;;15.53;5.40;;;;;;;;;;5058352;28;20198;-72
2022/09/25 00:34:04;;;;;;;19.17;4.63;;;;;;;;;;5050126;28;20250;-73
2022/09/25 00:36:30;;;;;;;17.07;5.00;;;;;;;;;;5044046;28;20196;-72
2022/09/25 00:38:57;;;;;;;12.23;4.37;;;;;;;;;;5054616;28;20589;-72
2022/09/25 00:41:24;;;;;;;14.57;4.83;;;;;;;;;;5056210;28;20188;-72
2022/09/25 00:43:54;;;;;;;15.97;4.30;;;;;;;;;;5053527;28;20177;-72
2022/09/25 00:46:39;;;;;;;11.97;4.63;;;;;;;;;;5045496;28;20562;-72
2022/09/25 00:49:11;;;;;;;17.20;5.77;;;;;;;;;;5045071;28;20221;-72
2022/09/25 00:51:55;;;;;;;11.40;4.37;;;;;;;;;;5029862;28;20193;-72
2022/09/25 00:54:23;;;;;;;12.17;4.53;;;;;;;;;;5042378;28;20217;-72
2022/09/25 00:56:51;;;;;;;9.67;4.70;;;;;;;;;;5043603;28;20253;-72
2022/09/25 00:59:21;;;;;;;11.73;4.47;;;;;;;;;;5042074;28;20236;-72
2022/09/25 01:01:47;;;;;;;8.17;4.00;;;;;;;;;;5043409;28;20228;-72
2022/09/25 01:04:13;;;;;;;10.47;4.17;;;;;;;;;;5048538;28;20209;-72
2022/09/25 01:06:40;;;;;;;8.87;4.67;;;;;;;;;;5045836;28;20210;-72
2022/09/25 01:09:06;;;;;;;11.50;4.47;;;;;;;;;;5048269;28;20189;-72
2022/09/25 01:11:32;;;;;;;11.13;4.60;;;;;;;;;;5051207;28;20188;-72
2022/09/25 01:14:00;;;;;;;19.63;5.50;;;;;;;;;;5046176;28;20193;-72
2022/09/25 01:16:28;;;;;;;10.47;4.73;;;;;;;;;;5046991;28;20189;-72
2022/09/25 01:19:11;;;;;;;15.43;4.67;;;;;;;;;;5054912;28;20547;-72
2022/09/25 01:21:48;;;;;;;8.57;4.43;;;;;;;;;;5049883;28;20691;-72
2022/09/25 01:24:20;;;;;;;9.93;4.73;;;;;;;;;;5043945;28;20205;-73
2022/09/25 01:27:22;;;;;;;13.43;5.27;;;;;;;;;;5046479;28;20225;-72
2022/09/25 01:30:11;;;;;;;14.43;4.93;;;;;;;;;;5045170;28;20263;-72
2022/09/25 01:32:58;;;;;;;13.37;4.90;;;;;;;;;;5042245;28;20217;-72
2022/09/25 01:35:48;;;;;;;13.30;5.87;;;;;;;;;;5048573;28;20658;-72
2022/09/25 01:38:31;;;;;;;10.93;5.67;;;;;;;;;;5047200;28;20185;-72
2022/09/25 01:41:18;;;;;;;17.10;5.53;;;;;;;;;;5046072;28;20264;-72
2022/09/25 01:44:16;;;;;;;12.80;5.53;;;;;;;;;;5036924;28;20193;-72
2022/09/25 01:46:49;;;;;;;14.73;6.33;;;;;;;;;;5037555;28;20613;-73
2022/09/25 01:49:31;;;;;;;12.30;5.37;;;;;;;;;;5051581;28;20185;-73
2022/09/25 01:51:59;;;;;;;14.03;5.90;;;;;;;;;;5058318;28;20176;-73
2022/09/25 01:54:36;;;;;;;16.30;5.73;;;;;;;;;;5046557;28;20242;-73
2022/09/25 01:57:08;;;;;;;14.40;5.83;;;;;;;;;;5046333;28;20231;-73
2022/09/25 01:59:40;;;;;;;10.50;5.47;;;;;;;;;;5046425;28;20656;-73
2022/09/25 02:02:12;;;;;;;17.63;5.60;;;;;;;;;;5050166;28;20311;-73
2022/09/25 02:04:44;;;;;;;12.63;5.30;;;;;;;;;;5044037;28;20185;-72
2022/09/25 02:07:15;;;;;;;17.83;5.97;;;;;;;;;;5046693;28;20236;-72
2022/09/25 02:09:49;;;;;;;10.97;4.93;;;;;;;;;;5046532;28;20212;-72
2022/09/25 02:12:21;;;;;;;10.53;5.33;;;;;;;;;;5039694;28;20783;-72
2022/09/25 02:15:15;;;;;;;12.37;4.77;;;;;;;;;;5048951;28;20181;-72
2022/09/25 02:20:35;;;;;;;12.03;4.97;;;;;;;;;;5044368;28;20599;-73
2022/09/25 02:23:18;;;;;;;9.47;5.10;;;;;;;;;;5046243;28;20177;-73
2022/09/25 02:25:48;;;;;;;8.80;4.63;;;;;;;;;;5041959;28;20266;-73
2022/09/25 02:28:13;;;;;;;12.00;4.63;;;;;;;;;;5044572;28;20217;-73
2022/09/25 02:30:39;;;;;;;10.57;5.47;;;;;;;;;;5049989;28;20529;-73
2022/09/25 02:33:04;;;;;;;15.70;4.97;;;;;;;;;;5045984;28;20204;-73
2022/09/25 02:35:31;;;;;;;14.23;5.00;;;;;;;;;;5045601;28;20506;-73
2022/09/25 02:37:57;;;;;;;14.57;4.77;;;;;;;;;;5051876;28;20204;-73
2022/09/25 02:40:32;;;;;;;14.17;5.83;;;;;;;;;;5061320;28;20181;-73
2022/09/25 02:43:26;;;;;;;9.30;4.50;;;;;;;;;;5034823;28;20181;-73
2022/09/25 02:46:12;;;;;;;10.70;4.47;;;;;;;;;;5049382;28;20202;-73
2022/09/25 02:48:58;;;;;;;9.17;4.77;;;;;;;;;;5044123;28;20197;-73
2022/09/25 02:51:43;;;;;;;9.50;4.77;;;;;;;;;;5026306;28;20189;-73
2022/09/25 02:54:30;;;;;;;10.80;5.30;;;;;;;;;;5039469;28;20188;-72
2022/09/25 02:57:03;;;;;;;14.47;5.00;;;;;;;;;;5044238;28;20256;-72
2022/09/25 02:59:35;;;;;;;11.07;5.13;;;;;;;;;;5042528;28;20213;-73
2022/09/25 03:02:01;;;;;;;12.87;5.20;;;;;;;;;;5048406;28;20189;-73
2022/09/25 03:04:28;;;;;;;11.43;5.70;;;;;;;;;;5053578;28;20181;-73
2022/09/25 03:06:55;;;;;;;19.17;5.90;;;;;;;;;;5049524;28;20512;-73
2022/09/25 03:09:22;;;;;;;17.30;5.77;;;;;;;;;;5044952;28;20182;-73
2022/09/25 03:11:47;;;;;;;13.50;4.83;;;;;;;;;;5049476;28;20209;-73
2022/09/25 03:14:12;;;;;;;16.00;5.23;;;;;;;;;;5047302;28;20671;-73
2022/09/25 03:16:48;;;;;;;11.50;5.20;;;;;;;;;;5044884;28;20594;-73
2022/09/25 03:19:15;;;;;;;9.03;3.90;;;;;;;;;;5040689;28;20188;-73
2022/09/25 03:21:40;;;;;;;13.10;5.23;;;;;;;;;;5052048;28;20246;-73
2022/09/25 03:24:06;;;;;;;13.40;4.77;;;;;;;;;;5039721;28;20197;-73
2022/09/25 03:26:31;;;;;;;12.50;5.80;;;;;;;;;;5049009;28;20590;-73
2022/09/25 03:29:01;;;;;;;11.67;5.27;;;;;;;;;;5046023;28;20250;-73
2022/09/25 03:31:28;;;;;;;10.57;4.97;;;;;;;;;;5058087;28;20258;-73
2022/09/25 03:33:54;;;;;;;11.83;4.50;;;;;;;;;;5046543;28;20185;-73
2022/09/25 03:36:21;;;;;;;13.27;4.63;;;;;;;;;;5046153;28;20220;-73
2022/09/25 03:38:49;;;;;;;14.47;4.80;;;;;;;;;;5052257;28;20218;-73
2022/09/25 03:41:18;;;;;;;7.20;3.97;;;;;;;;;;5042617;28;20185;-73
2022/09/25 03:43:47;;;;;;;9.17;4.70;;;;;;;;;;5049127;28;20697;-73
2022/09/25 03:46:13;;;;;;;14.43;5.17;;;;;;;;;;5051173;28;20557;-73
2022/09/25 03:48:39;;;;;;;19.13;4.93;;;;;;;;;;5046122;28;20181;-73
2022/09/25 03:51:05;;;;;;;17.73;4.73;;;;;;;;;;5047524;28;20520;-73
2022/09/25 03:53:32;;;;;;;18.87;4.73;;;;;;;;;;5048357;28;20189;-73
2022/09/25 03:56:11;;;;;;;18.00;4.97;;;;;;;;;;5055411;28;20185;-73
2022/09/25 03:58:37;;;;;;;15.57;5.13;;;;;;;;;;5046415;28;20291;-73
2022/09/25 04:01:03;;;;;;;11.63;4.73;;;;;;;;;;5043702;28;20193;-73
2022/09/25 04:03:31;;;;;;;11.13;4.97;;;;;;;;;;5054094;28;20197;-73
2022/09/25 04:06:00;;;;;;;10.40;5.20;;;;;;;;;;5040788;28;20560;-73
2022/09/25 04:08:26;;;;;;;14.23;5.70;;;;;;;;;;5047223;28;20185;-73
2022/09/25 04:10:55;;;;;;;16.57;5.60;;;;;;;;;;5047329;28;20177;-73
2022/09/25 04:13:23;;;;;;;17.33;6.07;;;;;;;;;;5048174;28;20213;-73
2022/09/25 04:15:50;;;;;;;12.53;5.37;;;;;;;;;;5041244;28;20221;-73
2022/09/25 04:18:15;;;;;;;15.50;6.40;;;;;;;;;;5047114;28;20572;-72
2022/09/25 04:20:40;;;;;;;13.40;5.60;;;;;;;;;;5039160;28;20332;-72
2022/09/25 04:23:06;;;;;;;17.80;5.50;;;;;;;;;;5043839;28;20197;-72
2022/09/25 04:25:31;;;;;;;17.43;6.03;;;;;;;;;;5045313;28;20182;-73
2022/09/25 04:27:57;;;;;;;11.40;5.27;;;;;;;;;;5038688;28;20470;-73
2022/09/25 04:30:24;;;;;;;14.67;5.77;;;;;;;;;;5044296;28;20174;-74
2022/09/25 04:35:34;;;;;;;11.77;5.67;;;;;;;;;;5042097;28;20283;-73
2022/09/25 04:38:00;;;;;;;15.93;6.20;;;;;;;;;;5052256;28;20319;-74
2022/09/25 04:40:26;;;;;;;13.47;5.17;;;;;;;;;;5052037;28;20191;-74
2022/09/25 04:43:02;;;;;;;14.77;5.87;;;;;;;;;;5056053;28;20192;-74
2022/09/25 04:45:29;;;;;;;13.90;5.33;;;;;;;;;;5050343;28;20177;-74
2022/09/25 04:47:59;;;;;;;16.20;5.20;;;;;;;;;;5041773;28;20236;-73
2022/09/25 04:50:26;;;;;;;8.57;5.10;;;;;;;;;;5032700;28;20190;-74
2022/09/25 04:52:52;;;;;;;8.90;5.97;;;;;;;;;;5048617;28;20190;-74
2022/09/25 04:55:18;;;;;;;11.97;5.10;;;;;;;;;;5038471;28;20714;-74
2022/09/25 04:57:44;;;;;;;14.17;5.07;;;;;;;;;;5049216;28;20178;-74
2022/09/25 05:00:10;;;;;;;9.27;4.43;;;;;;;;;;5043905;28;20322;-74
2022/09/25 05:02:36;;;;;;;8.23;4.63;;;;;;;;;;5045700;28;20196;-73
2022/09/25 05:05:02;;;;;;;10.43;4.30;;;;;;;;;;5047540;28;20558;-74
2022/09/25 05:07:28;;;;;;;12.20;4.37;;;;;;;;;;5046905;28;20204;-74
2022/09/25 05:09:53;;;;;;;9.80;3.93;;;;;;;;;;5056934;28;20559;-74
2022/09/25 05:12:19;;;;;;;8.63;4.30;;;;;;;;;;5052326;28;20182;-74
2022/09/25 05:14:45;;;;;;;10.60;4.50;;;;;;;;;;5047437;28;20185;-74
2022/09/25 05:17:10;;;;;;;6.83;4.17;;;;;;;;;;5050167;28;20180;-74
2022/09/25 05:19:36;;;;;;;9.67;3.63;;;;;;;;;;5061256;28;20180;-74
2022/09/25 05:22:02;;;;;;;8.80;4.27;;;;;;;;;;5054203;28;20185;-74
2022/09/25 05:24:29;;;;;;;7.40;4.00;;;;;;;;;;5039947;28;20170;-74
2022/09/25 05:26:54;;;;;;;10.83;4.80;;;;;;;;;;5049739;28;20239;-74
2022/09/25 05:29:19;;;;;;;11.83;4.50;;;;;;;;;;5049911;28;20177;-74
2022/09/25 05:31:47;;;;;;;10.10;4.03;;;;;;;;;;5041595;28;20281;-74
2022/09/25 05:34:13;;;;;;;12.50;4.73;;;;;;;;;;5040116;28;20727;-74
2022/09/25 05:36:38;;;;;;;10.97;4.03;;;;;;;;;;5038144;28;20207;-72
2022/09/25 05:39:03;;;;;;;8.40;3.87;;;;;;;;;;5045889;28;20173;-74
2022/09/25 05:41:30;;;;;;;7.77;3.90;;;;;;;;;;5045430;28;20205;-72
2022/09/25 05:43:56;;;;;;;10.30;3.70;;;;;;;;;;5038349;28;20181;-74
2022/09/25 05:46:21;;;;;;;6.93;3.63;;;;;;;;;;5048861;28;20202;-74
2022/09/25 05:48:47;;;;;;;9.53;3.67;;;;;;;;;;5050280;28;20558;-72
2022/09/25 05:51:12;;;;;;;9.33;3.90;;;;;;;;;;5048154;28;20620;-72
2022/09/25 05:53:37;;;;;;;8.10;3.73;;;;;;;;;;5037883;28;20180;-72
2022/09/25 05:56:04;;;;;;;11.17;4.17;;;;;;;;;;5037745;28;20530;-72
2022/09/25 05:58:30;;;;;;;5.63;3.73;;;;;;;;;;5042003;28;20268;-72
2022/09/25 06:01:02;;;;;;;9.00;4.10;;;;;;;;;;5040283;28;20645;-72
2022/09/25 06:03:28;;;;;;;9.93;4.13;;;;;;;;;;5038744;28;20182;-72
2022/09/25 06:05:58;;;;;;;21.23;5.97;;;;;;;;;;5045742;28;20233;-73
2022/09/25 06:08:25;;;;;;;12.17;4.00;;;;;;;;;;5050058;28;20203;-73
2022/09/25 06:10:55;;;;;;;11.67;3.60;;;;;;;;;;5044301;28;20182;-73
2022/09/25 06:13:22;;;;;;;11.43;4.00;;;;;;;;;;5041411;28;20188;-73
2022/09/25 06:15:51;;;;;;;14.23;5.07;;;;;;;;;;5041544;28;20223;-73
2022/09/25 06:18:17;;;;;;;12.03;5.03;;;;;;;;;;5039322;28;20184;-73
2022/09/25 06:20:42;;;;;;;10.73;4.50;;;;;;;;;;5035539;28;20830;-74
2022/09/25 06:23:08;;;;;;;15.90;5.70;;;;;;;;;;5039773;28;20181;-74
2022/09/25 06:25:35;;;;;;;10.77;5.50;;;;;;;;;;5047035;28;20215;-73
2022/09/25 06:28:01;;;;;;;12.43;5.70;;;;;;;;;;5055738;28;20283;-73
2022/09/25 06:30:33;;;;;;;15.43;6.00;;;;;;;;;;5050193;28;20264;-73
2022/09/25 06:33:08;;;;;;;19.57;7.33;;;;;;;;;;5042563;28;20285;-73
2022/09/25 06:35:35;;;;;;;13.47;6.20;;;;;;;;;;5043572;28;20207;-73
2022/09/25 06:38:01;;;;;;;21.80;7.13;;;;;;;;;;5059046;28;20292;-73
2022/09/25 06:40:30;;;;;;;18.77;7.90;;;;;;;;;;5048455;28;20185;-73
2022/09/25 06:43:00;;;;;;;19.17;8.83;;;;;;;;;;5042866;28;20185;-73
2022/09/25 06:45:28;;;;;;;22.63;7.93;;;;;;;;;;5057455;28;20474;-73
2022/09/25 06:47:56;;;;;;;17.67;7.67;;;;;;;;;;5043730;28;20236;-74
2022/09/25 06:50:30;;;;;;;21.63;8.20;;;;;;;;;;5051400;28;20365;-73
2022/09/25 06:52:59;;;;;;;22.00;8.13;;;;;;;;;;5042472;28;20201;-73
2022/09/25 06:55:26;;;;;;;12.77;8.17;;;;;;;;;;5033807;28;20201;-73
2022/09/25 06:57:51;;;;;;;17.80;7.77;;;;;;;;;;5044410;28;20649;-73
2022/09/25 07:00:17;;;;;;;21.07;8.10;;;;;;;;;;5037541;28;20209;-73
2022/09/25 07:05:27;;;;;;;18.13;7.73;;;;;;;;;;5031708;28;20217;-73
2022/09/25 07:07:53;;;;;;;19.30;7.47;;;;;;;;;;5043369;28;20657;-73
2022/09/25 07:10:18;;;;;;;13.23;7.73;;;;;;;;;;5040790;28;20194;-73
2022/09/25 07:12:44;;;;;;;15.23;7.53;;;;;;;;;;5058217;28;20695;-73
2022/09/25 07:15:10;;;;;;;23.40;8.80;;;;;;;;;;5042093;28;20190;-73
2022/09/25 07:17:36;;;;;;;18.27;7.40;;;;;;;;;;5047922;28;20177;-72
2022/09/25 07:20:02;;;;;;;14.80;7.87;;;;;;;;;;5038121;28;20186;-72
2022/09/25 07:22:28;;;;;;;17.13;7.70;;;;;;;;;;5034429;28;20186;-73
2022/09/25 07:24:53;;;;;;;16.73;8.10;;;;;;;;;;5035951;28;20198;-73
2022/09/25 07:27:18;;;;;;;16.83;7.83;;;;;;;;;;5052168;28;20229;-74
2022/09/25 07:29:44;;;;;;;18.42;7.90;;;;;;;;;;5048392;28;20260;-73
2022/09/25 07:32:09;;;;;;;17.27;7.50;;;;;;;;;;5044746;28;20255;-73
2022/09/25 07:34:36;;;;;;;12.38;6.72;;;;;;;;;;5031481;28;20193;-73
2022/09/25 07:37:02;;;;;;;18.87;6.97;;;;;;;;;;5037869;28;20181;-73
2022/09/25 07:39:27;;;;;;;19.92;7.82;;;;;;;;;;5030060;28;20204;-72
2022/09/25 07:41:55;;;;;;;15.52;5.88;;;;;;;;;;5039925;28;20196;-72
2022/09/25 07:44:20;;;;;;;13.65;5.78;;;;;;;;;;5032566;28;20675;-71
2022/09/25 07:46:46;;;;;;;14.82;5.70;;;;;;;;;;5034008;28;20213;-72
2022/09/25 07:49:12;;;;;;;10.75;5.60;;;;;;;;;;5028726;28;20186;-74
2022/09/25 07:51:38;;;;;;;14.32;4.85;;;;;;;;;;5040632;28;20186;-74
2022/09/25 07:54:03;;;;;;;15.50;4.60;;;;;;;;;;5049432;28;20190;-72
2022/09/25 07:56:28;;;;;;;8.57;4.25;;;;;;;;;;5045943;28;20582;-72
2022/09/25 07:58:54;;;;;;;11.60;4.88;;;;;;;;;;5046757;28;20190;-72
2022/09/25 08:01:19;;;;;;;7.90;3.45;;;;;;;;;;5039742;28;20284;-72
2022/09/25 08:03:44;;;;;;;12.82;3.72;;;;;;;;;;5053761;28;20231;-72
2022/09/25 08:06:12;;;;;;;7.63;3.22;;;;;;;;;;5051021;28;20208;-72
2022/09/25 08:08:39;;;;;;;7.25;3.30;;;;;;;;;;5043764;28;20202;-72
2022/09/25 08:11:11;;;;;;;12.63;3.17;;;;;;;;;;5033593;28;20182;-72
2022/09/25 08:13:37;;;;;;;7.15;2.85;;;;;;;;;;5029674;28;20634;-72
2022/09/25 08:16:12;;;;;;;8.38;2.70;;;;;;;;;;5030629;28;20650;-72
2022/09/25 08:18:40;;;;;;;8.77;2.25;;;;;;;;;;5026304;28;20216;-72
2022/09/25 08:21:06;;;;;;;11.55;2.88;;;;;;;;;;5039946;28;20205;-72
2022/09/25 08:23:31;;;;;;;9.60;3.35;;;;;;;;;;5028652;28;20689;-72
2022/09/25 08:28:37;;;;;;;7.00;2.30;;;;;;;;;;5043415;28;20568;-73
2022/09/25 08:31:03;;;;;;;8.60;2.55;;;;;;;;;;5045229;28;20665;-72
2022/09/25 08:33:29;;;;;;;4.53;1.63;;;;;;;;;;5041588;28;20239;-71
2022/09/25 08:35:57;;;;;;;7.10;1.83;;;;;;;;;;5043797;28;20237;-72
2022/09/25 08:38:23;;;;;;;12.90;2.20;;;;;;;;;;5045253;28;20170;-71
2022/09/25 08:41:14;;;;;;;7.75;1.90;;;;;;;;;;5045494;28;20234;-71
2022/09/25 08:43:44;;;;;;;11.52;1.90;;;;;;;;;;5047256;28;20185;-73
2022/09/25 08:49:44;;;;;;;3.90;1.40;;;;;;;;;;5049486;28;20672;-70
2022/09/25 08:52:15;;;;;;;9.55;1.30;;;;;;;;;;5047905;28;20203;-71
2022/09/25 08:54:40;;;;;;;8.48;1.40;;;;;;;;;;5043610;28;20253;-71
2022/09/25 08:57:33;;;;;;;4.22;0.98;;;;;;;;;;5046505;28;20311;-71
2022/09/25 09:00:03;;;;;;;6.55;1.10;;;;;;;;;;5041294;28;20228;-71
2022/09/25 09:02:52;;;;;;;6.57;1.17;;;;;;;;;;5057350;28;20191;-71
2022/09/25 09:05:36;;;;;;;12.55;1.13;;;;;;;;;;5045469;28;20818;-72
2022/09/25 09:08:16;;;;;;;6.43;1.10;;;;;;;;;;5045226;28;20193;-71
2022/09/25 09:10:52;;;;;;;7.80;0.88;;;;;;;;;;5052985;28;20314;-72
2022/09/25 09:13:33;;;;;;;9.85;0.98;;;;;;;;;;5044813;28;20218;-70
2022/09/25 09:16:14;;;;;;;3.47;0.80;;;;;;;;;;5043419;28;20177;-71
2022/09/25 09:18:41;;;;;;;3.13;0.70;;;;;;;;;;5054942;28;20264;-71
2022/09/25 09:21:24;;;;;;;5.70;1.20;;;;;;;;;;5050651;28;20181;-71
2022/09/25 09:24:07;;;;;;;6.93;0.82;;;;;;;;;;5058759;28;20259;-71
2022/09/25 09:27:14;;;;;;;6.35;0.90;;;;;;;;;;5060447;28;20727;-71
2022/09/25 09:29:48;;;;;;;3.65;0.65;;;;;;;;;;5045593;28;20236;-71
2022/09/25 09:32:38;;;;;;;5.97;1.00;;;;;;;;;;5043294;28;20673;-72
2022/09/25 09:35:25;;;;;;;6.63;0.88;;;;;;;;;;5045299;28;20246;-71
2022/09/25 09:38:19;;;;;;;6.70;0.63;;;;;;;;;;5055202;28;20681;-70
2022/09/25 09:40:53;;;;;;;4.05;0.70;;;;;;;;;;5034441;28;20181;-73
2022/09/25 09:43:39;;;;;;;3.95;1.30;;;;;;;;;;5038166;28;20201;-72
2022/09/25 09:46:27;;;;;;;6.45;0.93;;;;;;;;;;5036877;28;20255;-72
2022/09/25 09:49:26;;;;;;;6.07;0.80;;;;;;;;;;5036944;28;20602;-71
2022/09/25 09:52:21;;;;;;;3.28;0.70;;;;;;;;;;5031374;28;20654;-70
2022/09/25 09:55:01;;;;;;;5.15;0.55;;;;;;;;;;5040130;28;20516;-72
2022/09/25 09:57:31;;;;;;;3.65;0.60;;;;;;;;;;5035203;28;20623;-71
2022/09/25 10:00:12;;;;;;;4.38;0.80;;;;;;;;;;5035895;28;20178;-71
2022/09/25 10:02:42;;;;;;;8.63;0.88;;;;;;;;;;5031056;28;20182;-71
2022/09/25 10:05:16;;;;;;;5.03;0.70;;;;;;;;;;5033501;28;20273;-71
2022/09/25 10:07:43;;;;;;;4.82;0.73;;;;;;;;;;5028210;28;20228;-71
2022/09/25 10:10:13;;;;;;;3.85;0.32;;;;;;;;;;5030621;28;20269;-71
2022/09/25 10:12:50;;;;;;;5.65;0.80;;;;;;;;;;5034840;28;20364;-71
2022/09/25 10:15:31;;;;;;;6.80;0.88;;;;;;;;;;5032401;28;20181;-71
2022/09/25 10:17:59;;;;;;;6.22;0.80;;;;;;;;;;5038264;28;20213;-71
2022/09/25 10:20:29;;;;;;;5.93;0.55;;;;;;;;;;5036319;28;20182;-71
2022/09/25 10:22:57;;;;;;;2.85;0.70;;;;;;;;;;5034605;28;20189;-70
2022/09/25 10:25:39;;;;;;;5.13;0.57;;;;;;;;;;5038551;28;20177;-71
2022/09/25 10:28:28;;;;;;;4.75;0.70;;;;;;;;;;5036221;28;20228;-70
2022/09/25 10:30:54;;;;;;;4.72;0.45;;;;;;;;;;5034291;28;20542;-70
2022/09/25 10:33:25;;;;;;;2.50;0.40;;;;;;;;;;5042875;28;20297;-71
2022/09/25 10:35:53;;;;;;;3.95;0.70;;;;;;;;;;5029423;28;20630;-70
2022/09/25 10:38:40;;;;;;;7.70;0.70;;;;;;;;;;5037617;28;20173;-70
2022/09/25 10:41:20;;;;;;;5.85;0.73;;;;;;;;;;5033865;28;20182;-70
2022/09/25 10:43:59;;;;;;;6.50;0.57;;;;;;;;;;5037380;28;20205;-70
2022/09/25 10:52:09;;;;;;;6.25;0.30;;;;;;;;;;5031676;28;20217;-71
2022/09/25 10:54:35;;;;;;;3.55;0.93;;;;;;;;;;5031599;28;20185;-71
2022/09/25 10:57:12;;;;;;;5.30;0.60;;;;;;;;;;5034322;28;20556;-71
2022/09/25 10:59:38;;;;;;;1.67;0.40;;;;;;;;;;5036017;28;20689;-71
2022/09/25 11:02:18;;;;;;;1.27;0.38;;;;;;;;;;5033763;28;20181;-72
2022/09/25 11:04:43;;;;;;;0.90;0.32;;;;;;;;;;5040094;28;20686;-71
2022/09/25 11:07:16;;;;;;;2.92;0.50;;;;;;;;;;5031700;28;20271;-72
2022/09/25 11:09:43;;;;;;;2.63;0.32;;;;;;;;;;5033502;28;20200;-72
2022/09/25 11:12:36;;;;;;;1.95;0.38;;;;;;;;;;5033899;28;20181;-71
2022/09/25 11:15:04;;;;;;;4.68;0.52;;;;;;;;;;5028943;28;20292;-72
2022/09/25 11:17:38;;;;;;;3.47;0.63;;;;;;;;;;5038556;28;20196;-72
2022/09/25 11:20:15;;;;;;;2.58;0.40;;;;;;;;;;5028064;28;20693;-72
2022/09/25 11:22:50;;;;;;;8.48;1.67;;;;;;;;;;5034724;28;20671;-72
2022/09/25 11:25:32;;;;;;;3.40;0.70;;;;;;;;;;5028969;28;20239;-73
2022/09/25 11:28:14;;;;;;;3.50;0.40;;;;;;;;;;5027803;28;20252;-73
2022/09/25 11:30:47;;;;;;;2.47;0.50;;;;;;;;;;5027575;28;20186;-72
2022/09/25 11:33:41;;;;;;;2.35;0.50;;;;;;;;;;5027396;28;20289;-74
2022/09/25 11:36:40;;;;;;;1.33;0.40;;;;;;;;;;5031045;28;20210;-72
2022/09/25 11:42:17;;;;;;;2.20;0.60;;;;;;;;;;5038110;28;20243;-74
2022/09/25 11:44:53;;;;;;;3.17;0.60;;;;;;;;;;5031752;28;20239;-75
2022/09/25 11:47:44;;;;;;;6.60;0.90;;;;;;;;;;5033937;28;20219;-75
2022/09/25 11:50:14;;;;;;;3.72;0.40;;;;;;;;;;5032787;28;20229;-74
2022/09/25 11:53:22;;;;;;;4.30;1.05;;;;;;;;;;5024651;28;20475;-73
2022/09/25 11:55:53;;;;;;;2.35;0.60;;;;;;;;;;5025359;28;20196;-73
2022/09/25 11:59:03;;;;;;;3.60;0.50;;;;;;;;;;5030915;28;20194;-72
2022/09/25 12:01:37;;;;;;;3.03;0.57;;;;;;;;;;5016052;28;20288;-72
2022/09/25 12:04:15;;;;;;;3.83;0.63;;;;;;;;;;5030578;28;20181;-73
2022/09/25 12:07:11;;;;;;;3.40;0.85;;;;;;;;;;5025707;28;20200;-71
2022/09/25 12:10:11;;;;;;;3.75;0.82;;;;;;;;;;5029754;28;20542;-73
2022/09/25 12:12:44;;;;;;;3.72;0.52;;;;;;;;;;5029073;28;20571;-73
2022/09/25 12:15:16;;;;;;;2.67;0.68;;;;;;;;;;5030973;28;20275;-74
2022/09/25 12:18:06;;;;;;;4.15;0.90;;;;;;;;;;5033168;28;20260;-73
2022/09/25 12:20:51;;;;;;;3.20;0.70;;;;;;;;;;5032315;28;20208;-73
2022/09/25 12:23:41;;;;;;;2.47;0.77;;;;;;;;;;5025556;28;20211;-73
2022/09/25 12:26:14;;;;;;;3.97;0.55;;;;;;;;;;5028679;28;20189;-73
2022/09/25 12:28:54;;;;;;;4.20;0.55;;;;;;;;;;5030186;28;20247;-72
2022/09/25 12:31:36;;;;;;;4.82;0.80;;;;;;;;;;5028814;28;20616;-73
2022/09/25 12:34:39;;;;;;;2.90;0.60;;;;;;;;;;5041188;28;20189;-72
2022/09/25 12:37:42;;;;;;;1.95;0.60;;;;;;;;;;5040461;28;20234;-72
2022/09/25 12:40:22;;;;;;;1.05;0.57;;;;;;;;;;5033898;28;20473;-72
2022/09/25 12:42:56;;;;;;;2.70;0.50;;;;;;;;;;5026246;28;20188;-72
2022/09/25 12:45:34;;;;;;;2.45;0.52;;;;;;;;;;5032820;28;20181;-72
2022/09/25 12:48:03;;;;;;;3.80;0.52;;;;;;;;;;5039777;28;20635;-72
2022/09/25 12:50:37;;;;;;;2.05;0.80;;;;;;;;;;5029690;28;20491;-70
2022/09/25 12:53:33;;;;;;;2.63;0.73;;;;;;;;;;5030165;28;20683;-70
2022/09/25 12:56:08;;;;;;;2.30;0.63;;;;;;;;;;5027130;28;20190;-72
2022/09/25 12:58:49;;;;;;;2.88;0.73;;;;;;;;;;5035536;28;20248;-72
2022/09/25 13:01:38;;;;;;;1.85;0.50;;;;;;;;;;5032196;28;20188;-72
2022/09/25 13:04:35;;;;;;;3.88;0.38;;;;;;;;;;5027361;28;20199;-72
2022/09/25 13:07:20;;;;;;;3.47;0.57;;;;;;;;;;5030461;28;20205;-71
2022/09/25 13:09:47;;;;;;;5.53;1.50;;;;;;;;;;5029160;28;20638;-72
2022/09/25 13:12:34;;;;;;;3.45;0.40;;;;;;;;;;5028362;28;20256;-72
2022/09/25 13:14:59;;;;;;;2.58;0.60;;;;;;;;;;5036849;28;20182;-73
2022/09/25 13:17:24;;;;;;;4.25;0.60;;;;;;;;;;5037798;28;20661;-72
2022/09/25 13:19:50;;;;;;;2.35;0.60;;;;;;;;;;5038329;28;20181;-72
2022/09/25 13:22:24;;;;;;;1.65;0.50;;;;;;;;;;5031205;28;20193;-72
2022/09/25 13:25:00;;;;;;;1.65;0.50;;;;;;;;;;5041293;28;20269;-72
2022/09/25 13:27:37;;;;;;;1.65;0.40;;;;;;;;;;5041685;28;20253;-72
2022/09/25 13:30:03;;;;;;;2.17;0.60;;;;;;;;;;5034751;28;20181;-72
2022/09/25 13:32:33;;;;;;;1.55;0.40;;;;;;;;;;5034043;28;20268;-72
2022/09/25 13:35:16;;;;;;;1.80;0.55;;;;;;;;;;5034505;28;20261;-72
2022/09/25 13:37:41;;;;;;;2.67;0.43;;;;;;;;;;5041867;28;20531;-72
2022/09/25 13:43:17;;;;;;;2.22;0.40;;;;;;;;;;5037723;28;20216;-72
2022/09/25 13:45:42;;;;;;;2.53;0.32;;;;;;;;;;5031634;28;20244;-74
2022/09/25 13:48:31;;;;;;;1.42;0.60;;;;;;;;;;5032492;28;20576;-72
2022/09/25 13:51:33;;;;;;;1.55;0.50;;;;;;;;;;5035201;28;20645;-72
2022/09/25 13:54:22;;;;;;;5.07;0.80;;;;;;;;;;5021183;28;20190;-72
2022/09/25 13:56:48;;;;;;;2.80;0.40;;;;;;;;;;5041783;28;20656;-72
2022/09/25 13:59:16;;;;;;;4.75;0.40;;;;;;;;;;5036099;28;20507;-73
2022/09/25 14:01:45;;;;;;;1.08;0.45;;;;;;;;;;5036370;28;20178;-72
2022/09/25 14:04:14;;;;;;;2.30;0.60;;;;;;;;;;5028582;28;20208;-71
2022/09/25 14:06:41;;;;;;;2.53;0.88;;;;;;;;;;5033321;28;20216;-72
2022/09/25 14:09:12;;;;;;;3.03;0.60;;;;;;;;;;5029774;28;20269;-72
2022/09/25 14:11:42;;;;;;;2.65;0.50;;;;;;;;;;5040230;28;20646;-72
2022/09/25 14:14:25;;;;;;;2.38;0.45;;;;;;;;;;5031243;28;20506;-72
2022/09/25 14:16:53;;;;;;;1.17;0.50;;;;;;;;;;5027101;28;20229;-72
2022/09/25 14:19:31;;;;;;;1.95;0.30;;;;;;;;;;5028147;28;20175;-72
2022/09/25 14:21:58;;;;;;;3.58;0.60;;;;;;;;;;5030344;28;20186;-70
2022/09/25 14:24:29;;;;;;;2.28;0.50;;;;;;;;;;5030107;28;20636;-70
2022/09/25 14:26:57;;;;;;;3.25;0.60;;;;;;;;;;5037693;28;20245;-70
2022/09/25 14:29:36;;;;;;;2.60;0.50;;;;;;;;;;5029771;28;20566;-68
2022/09/25 14:32:30;;;;;;;3.53;0.65;;;;;;;;;;5033332;28;20209;-70
2022/09/25 14:35:28;;;;;;;2.55;0.50;;;;;;;;;;5032613;28;20225;-69
2022/09/25 14:38:21;;;;;;;2.60;0.93;;;;;;;;;;5028844;28;20273;-72
2022/09/25 14:41:23;;;;;;;3.92;0.43;;;;;;;;;;5029965;28;20620;-71
2022/09/25 14:44:05;;;;;;;4.03;0.60;;;;;;;;;;5030266;28;20188;-70
2022/09/25 14:46:32;;;;;;;2.63;0.50;;;;;;;;;;5032589;28;20552;-71
2022/09/25 14:49:20;;;;;;;2.55;0.50;;;;;;;;;;5028770;28;20789;-70
2022/09/25 14:51:47;;;;;;;2.00;0.70;;;;;;;;;;5032372;28;20242;-69
2022/09/25 14:54:19;;;;;;;1.52;0.50;;;;;;;;;;5027672;28;20230;-69
2022/09/25 14:56:49;;;;;;;4.32;0.73;;;;;;;;;;5028533;28;20201;-69
2022/09/25 14:59:46;;;;;;;2.13;0.50;;;;;;;;;;5028701;28;20281;-70
2022/09/25 15:02:17;;;;;;;1.77;0.40;;;;;;;;;;5025915;28;20209;-69
2022/09/25 15:04:42;;;;;;;1.45;0.40;;;;;;;;;;5026568;28;20181;-69
2022/09/25 15:07:15;;;;;;;2.25;0.52;;;;;;;;;;5029900;28;20711;-69
2022/09/25 15:09:48;;;;;;;2.38;0.40;;;;;;;;;;5030190;28;20186;-69
2022/09/25 15:12:24;;;;;;;2.38;0.50;;;;;;;;;;5024379;28;20197;-69
2022/09/25 15:15:08;;;;;;;3.10;0.40;;;;;;;;;;5036247;28;20181;-69
2022/09/25 15:17:49;;;;;;;1.60;0.40;;;;;;;;;;5032571;28;20268;-70
2022/09/25 15:20:24;;;;;;;2.17;0.47;;;;;;;;;;5031878;28;20170;-69
2022/09/25 15:22:57;;;;;;;2.13;0.50;;;;;;;;;;5033916;28;20186;-69
2022/09/25 15:25:30;;;;;;;1.35;0.30;;;;;;;;;;5034618;28;20274;-70
2022/09/25 15:27:55;;;;;;;1.17;0.35;;;;;;;;;;5027345;28;20217;-70
2022/09/25 15:30:24;;;;;;;1.25;0.50;;;;;;;;;;5025753;28;20197;-72
2022/09/25 15:32:52;;;;;;;2.30;0.45;;;;;;;;;;5029683;28;20251;-70
2022/09/25 15:35:22;;;;;;;1.92;0.60;;;;;;;;;;5040481;28;20263;-70
2022/09/25 15:37:48;;;;;;;2.95;0.60;;;;;;;;;;5039362;28;20186;-70
2022/09/25 15:40:16;;;;;;;3.88;0.88;;;;;;;;;;5034134;28;20204;-71
2022/09/25 15:42:47;;;;;;;1.80;0.77;;;;;;;;;;5043006;28;20189;-70